sensor_id;sensor_type;location;lat;lon;timestamp;P1;durP1;ratioP1;P2;durP2;ratioP2
3939;SDS011;1984;48.312;9.244;2022-09-09T00:01:43;4.20;;;1.73;;
3939;SDS011;1984;48.312;9.244;2022-09-09T00:04:27;1.30;;;1.20;;
3939;SDS011;1984;48.312;9.244;2022-09-09T00:07:03;2.90;;;1.57;;
3939;SDS011;1984;48.312;9.244;2022-09-09T00:12:53;2.40;;;1.40;;
3939;SDS011;1984;48.312;9.244;2022-09-09T00:15:33;1.90;;;1.17;;
3939;SDS011;1984;48.312;9.244;2022-09-09T00:18:21;1.50;;;0.93;;
3939;SDS011;1984;48.312;9.244;2022-09-09T00:21:01;3.53;;;1.33;;
3939;SDS011;1984;48.312;9.244;2022-09-09T00:23:39;7.57;;;1.80;;
3939;SDS011;1984;48.312;9.244;2022-09-09T00:28:35;1.53;;;1.37;;
3939;SDS011;1984;48.312;9.244;2022-09-09T00:31:20;3.27;;;1.13;;
3939;SDS011;1984;48.312;9.244;2022-09-09T00:33:49;1.67;;;1.17;;
3939;SDS011;1984;48.312;9.244;2022-09-09T00:36:18;1.10;;;1.00;;
3939;SDS011;1984;48.312;9.244;2022-09-09T00:38:48;1.20;;;1.20;;
3939;SDS011;1984;48.312;9.244;2022-09-09T00:44:03;1.40;;;1.30;;
3939;SDS011;1984;48.312;9.244;2022-09-09T00:52:13;2.07;;;1.10;;
3939;SDS011;1984;48.312;9.244;2022-09-09T00:54:51;3.53;;;1.20;;
3939;SDS011;1984;48.312;9.244;2022-09-09T01:00:29;2.40;;;1.20;;
3939;SDS011;1984;48.312;9.244;2022-09-09T01:07:58;1.10;;;1.00;;
3939;SDS011;1984;48.312;9.244;2022-09-09T01:10:39;6.57;;;1.20;;
3939;SDS011;1984;48.312;9.244;2022-09-09T01:13:13;1.23;;;1.03;;
3939;SDS011;1984;48.312;9.244;2022-09-09T01:15:51;1.40;;;1.30;;
3939;SDS011;1984;48.312;9.244;2022-09-09T01:18:19;4.17;;;1.20;;
3939;SDS011;1984;48.312;9.244;2022-09-09T01:20:55;6.60;;;1.20;;
3939;SDS011;1984;48.312;9.244;2022-09-09T01:29:01;1.53;;;1.00;;
3939;SDS011;1984;48.312;9.244;2022-09-09T01:31:30;0.97;;;0.90;;
3939;SDS011;1984;48.312;9.244;2022-09-09T01:34:12;1.00;;;1.00;;
3939;SDS011;1984;48.312;9.244;2022-09-09T01:36:42;1.20;;;1.20;;
3939;SDS011;1984;48.312;9.244;2022-09-09T01:39:11;2.37;;;1.20;;
3939;SDS011;1984;48.312;9.244;2022-09-09T01:41:38;2.97;;;1.10;;
3939;SDS011;1984;48.312;9.244;2022-09-09T01:44:03;3.30;;;1.37;;
3939;SDS011;1984;48.312;9.244;2022-09-09T01:46:30;4.87;;;1.20;;
3939;SDS011;1984;48.312;9.244;2022-09-09T01:48:56;1.30;;;1.13;;
3939;SDS011;1984;48.312;9.244;2022-09-09T01:51:23;1.90;;;1.00;;
3939;SDS011;1984;48.312;9.244;2022-09-09T01:53:49;1.10;;;1.10;;
3939;SDS011;1984;48.312;9.244;2022-09-09T01:56:18;2.57;;;1.00;;
3939;SDS011;1984;48.312;9.244;2022-09-09T02:04:10;3.23;;;1.10;;
3939;SDS011;1984;48.312;9.244;2022-09-09T02:06:59;1.90;;;0.90;;
3939;SDS011;1984;48.312;9.244;2022-09-09T02:09:25;1.33;;;1.20;;
3939;SDS011;1984;48.312;9.244;2022-09-09T02:12:08;1.30;;;1.20;;
3939;SDS011;1984;48.312;9.244;2022-09-09T02:14:41;1.00;;;0.90;;
3939;SDS011;1984;48.312;9.244;2022-09-09T02:17:13;4.00;;;1.10;;
3939;SDS011;1984;48.312;9.244;2022-09-09T02:19:44;2.50;;;1.10;;
3939;SDS011;1984;48.312;9.244;2022-09-09T02:22:13;1.73;;;1.17;;
3939;SDS011;1984;48.312;9.244;2022-09-09T02:24:43;1.03;;;0.90;;
3939;SDS011;1984;48.312;9.244;2022-09-09T02:27:11;1.80;;;1.03;;
3939;SDS011;1984;48.312;9.244;2022-09-09T02:29:39;3.50;;;0.80;;
3939;SDS011;1984;48.312;9.244;2022-09-09T02:32:08;1.73;;;1.20;;
3939;SDS011;1984;48.312;9.244;2022-09-09T02:34:40;1.43;;;1.03;;
3939;SDS011;1984;48.312;9.244;2022-09-09T02:37:12;4.60;;;0.97;;
3939;SDS011;1984;48.312;9.244;2022-09-09T02:39:40;1.07;;;0.97;;
3939;SDS011;1984;48.312;9.244;2022-09-09T02:42:05;5.20;;;1.40;;
3939;SDS011;1984;48.312;9.244;2022-09-09T02:44:33;3.23;;;1.43;;
3939;SDS011;1984;48.312;9.244;2022-09-09T02:55:23;3.80;;;1.13;;
3939;SDS011;1984;48.312;9.244;2022-09-09T02:57:50;2.10;;;1.23;;
3939;SDS011;1984;48.312;9.244;2022-09-09T03:00:22;1.20;;;1.20;;
3939;SDS011;1984;48.312;9.244;2022-09-09T03:02:49;5.50;;;1.70;;
3939;SDS011;1984;48.312;9.244;2022-09-09T03:05:16;3.00;;;1.03;;
3939;SDS011;1984;48.312;9.244;2022-09-09T03:07:41;3.33;;;0.90;;
3939;SDS011;1984;48.312;9.244;2022-09-09T03:10:07;1.63;;;1.33;;
3939;SDS011;1984;48.312;9.244;2022-09-09T03:12:33;1.73;;;1.30;;
3939;SDS011;1984;48.312;9.244;2022-09-09T03:14:58;4.33;;;1.20;;
3939;SDS011;1984;48.312;9.244;2022-09-09T03:17:24;4.03;;;1.63;;
3939;SDS011;1984;48.312;9.244;2022-09-09T03:19:50;1.33;;;1.20;;
3939;SDS011;1984;48.312;9.244;2022-09-09T03:22:17;4.93;;;1.20;;
3939;SDS011;1984;48.312;9.244;2022-09-09T03:24:43;5.03;;;1.33;;
3939;SDS011;1984;48.312;9.244;2022-09-09T03:27:08;1.60;;;1.30;;
3939;SDS011;1984;48.312;9.244;2022-09-09T03:29:34;2.00;;;1.00;;
3939;SDS011;1984;48.312;9.244;2022-09-09T03:31:59;1.27;;;1.20;;
3939;SDS011;1984;48.312;9.244;2022-09-09T03:34:25;3.00;;;1.20;;
3939;SDS011;1984;48.312;9.244;2022-09-09T03:36:50;5.13;;;1.60;;
3939;SDS011;1984;48.312;9.244;2022-09-09T03:39:16;1.47;;;1.00;;
3939;SDS011;1984;48.312;9.244;2022-09-09T03:41:42;1.27;;;1.17;;
3939;SDS011;1984;48.312;9.244;2022-09-09T03:44:12;1.40;;;1.30;;
3939;SDS011;1984;48.312;9.244;2022-09-09T03:46:37;2.93;;;1.03;;
3939;SDS011;1984;48.312;9.244;2022-09-09T03:49:03;7.03;;;1.50;;
3939;SDS011;1984;48.312;9.244;2022-09-09T03:51:29;1.60;;;1.10;;
3939;SDS011;1984;48.312;9.244;2022-09-09T03:53:54;8.33;;;1.10;;
3939;SDS011;1984;48.312;9.244;2022-09-09T03:56:21;4.93;;;1.50;;
3939;SDS011;1984;48.312;9.244;2022-09-09T03:58:47;1.10;;;1.00;;
3939;SDS011;1984;48.312;9.244;2022-09-09T04:01:13;2.20;;;1.40;;
3939;SDS011;1984;48.312;9.244;2022-09-09T04:03:39;2.70;;;1.23;;
3939;SDS011;1984;48.312;9.244;2022-09-09T04:06:06;1.33;;;1.27;;
3939;SDS011;1984;48.312;9.244;2022-09-09T04:08:33;1.13;;;1.13;;
3939;SDS011;1984;48.312;9.244;2022-09-09T04:11:00;5.70;;;1.40;;
3939;SDS011;1984;48.312;9.244;2022-09-09T04:13:31;1.97;;;1.17;;
3939;SDS011;1984;48.312;9.244;2022-09-09T04:16:00;2.93;;;1.30;;
3939;SDS011;1984;48.312;9.244;2022-09-09T04:18:28;1.73;;;1.37;;
3939;SDS011;1984;48.312;9.244;2022-09-09T04:20:54;2.40;;;1.60;;
3939;SDS011;1984;48.312;9.244;2022-09-09T04:23:22;5.20;;;1.50;;
3939;SDS011;1984;48.312;9.244;2022-09-09T04:25:53;8.53;;;1.57;;
3939;SDS011;1984;48.312;9.244;2022-09-09T04:28:20;2.37;;;1.20;;
3939;SDS011;1984;48.312;9.244;2022-09-09T04:30:47;6.37;;;1.63;;
3939;SDS011;1984;48.312;9.244;2022-09-09T04:33:13;3.87;;;1.27;;
3939;SDS011;1984;48.312;9.244;2022-09-09T04:35:39;1.70;;;1.30;;
3939;SDS011;1984;48.312;9.244;2022-09-09T04:38:09;12.30;;;1.37;;
3939;SDS011;1984;48.312;9.244;2022-09-09T04:40:34;2.50;;;1.70;;
3939;SDS011;1984;48.312;9.244;2022-09-09T04:43:01;1.37;;;1.27;;
3939;SDS011;1984;48.312;9.244;2022-09-09T04:45:29;1.57;;;1.30;;
3939;SDS011;1984;48.312;9.244;2022-09-09T04:47:55;5.47;;;1.37;;
3939;SDS011;1984;48.312;9.244;2022-09-09T04:50:21;10.30;;;1.47;;
3939;SDS011;1984;48.312;9.244;2022-09-09T04:52:47;3.03;;;1.47;;
3939;SDS011;1984;48.312;9.244;2022-09-09T04:55:13;1.80;;;1.33;;
3939;SDS011;1984;48.312;9.244;2022-09-09T04:57:39;1.87;;;1.40;;
3939;SDS011;1984;48.312;9.244;2022-09-09T05:00:05;5.70;;;1.83;;
3939;SDS011;1984;48.312;9.244;2022-09-09T05:02:31;4.77;;;1.90;;
3939;SDS011;1984;48.312;9.244;2022-09-09T05:04:57;2.43;;;1.73;;
3939;SDS011;1984;48.312;9.244;2022-09-09T05:07:23;2.23;;;1.73;;
3939;SDS011;1984;48.312;9.244;2022-09-09T05:09:51;2.73;;;1.60;;
3939;SDS011;1984;48.312;9.244;2022-09-09T05:12:16;6.40;;;1.87;;
3939;SDS011;1984;48.312;9.244;2022-09-09T05:14:42;5.70;;;1.97;;
3939;SDS011;1984;48.312;9.244;2022-09-09T05:17:08;4.43;;;1.57;;
3939;SDS011;1984;48.312;9.244;2022-09-09T05:19:34;6.10;;;1.70;;
3939;SDS011;1984;48.312;9.244;2022-09-09T05:22:00;4.60;;;2.20;;
3939;SDS011;1984;48.312;9.244;2022-09-09T05:24:26;1.80;;;1.43;;
3939;SDS011;1984;48.312;9.244;2022-09-09T05:26:51;10.33;;;1.63;;
3939;SDS011;1984;48.312;9.244;2022-09-09T05:29:17;2.90;;;1.70;;
3939;SDS011;1984;48.312;9.244;2022-09-09T05:31:44;2.70;;;1.70;;
3939;SDS011;1984;48.312;9.244;2022-09-09T05:34:10;2.50;;;1.60;;
3939;SDS011;1984;48.312;9.244;2022-09-09T05:36:36;6.53;;;1.73;;
3939;SDS011;1984;48.312;9.244;2022-09-09T05:39:02;6.83;;;1.10;;
3939;SDS011;1984;48.312;9.244;2022-09-09T05:41:28;3.90;;;1.43;;
3939;SDS011;1984;48.312;9.244;2022-09-09T05:43:54;3.90;;;1.57;;
3939;SDS011;1984;48.312;9.244;2022-09-09T05:46:20;4.87;;;1.43;;
3939;SDS011;1984;48.312;9.244;2022-09-09T05:48:48;1.87;;;1.40;;
3939;SDS011;1984;48.312;9.244;2022-09-09T05:51:17;2.73;;;1.40;;
3939;SDS011;1984;48.312;9.244;2022-09-09T05:53:46;1.37;;;1.20;;
3939;SDS011;1984;48.312;9.244;2022-09-09T05:56:13;5.77;;;1.60;;
3939;SDS011;1984;48.312;9.244;2022-09-09T05:58:41;2.23;;;1.43;;
3939;SDS011;1984;48.312;9.244;2022-09-09T06:01:14;2.40;;;1.33;;
3939;SDS011;1984;48.312;9.244;2022-09-09T06:03:42;3.00;;;1.70;;
3939;SDS011;1984;48.312;9.244;2022-09-09T06:06:09;3.00;;;1.33;;
3939;SDS011;1984;48.312;9.244;2022-09-09T06:08:37;1.60;;;1.50;;
3939;SDS011;1984;48.312;9.244;2022-09-09T06:11:05;2.37;;;1.43;;
3939;SDS011;1984;48.312;9.244;2022-09-09T06:13:33;1.80;;;1.60;;
3939;SDS011;1984;48.312;9.244;2022-09-09T06:16:00;4.43;;;1.43;;
3939;SDS011;1984;48.312;9.244;2022-09-09T06:18:26;2.93;;;1.60;;
3939;SDS011;1984;48.312;9.244;2022-09-09T06:20:55;4.00;;;1.67;;
3939;SDS011;1984;48.312;9.244;2022-09-09T06:23:22;2.87;;;1.60;;
3939;SDS011;1984;48.312;9.244;2022-09-09T06:25:48;2.20;;;1.57;;
3939;SDS011;1984;48.312;9.244;2022-09-09T06:28:14;6.03;;;1.73;;
3939;SDS011;1984;48.312;9.244;2022-09-09T06:30:40;2.17;;;1.83;;
3939;SDS011;1984;48.312;9.244;2022-09-09T06:33:06;1.90;;;1.40;;
3939;SDS011;1984;48.312;9.244;2022-09-09T06:35:32;2.60;;;1.30;;
3939;SDS011;1984;48.312;9.244;2022-09-09T06:37:57;4.40;;;1.70;;
3939;SDS011;1984;48.312;9.244;2022-09-09T06:40:23;5.20;;;1.40;;
3939;SDS011;1984;48.312;9.244;2022-09-09T06:42:49;3.40;;;1.43;;
3939;SDS011;1984;48.312;9.244;2022-09-09T06:45:14;5.63;;;1.40;;
3939;SDS011;1984;48.312;9.244;2022-09-09T06:47:40;6.57;;;1.30;;
3939;SDS011;1984;48.312;9.244;2022-09-09T06:50:07;2.40;;;1.57;;
3939;SDS011;1984;48.312;9.244;2022-09-09T06:52:33;1.60;;;1.20;;
3939;SDS011;1984;48.312;9.244;2022-09-09T06:54:58;1.27;;;1.17;;
3939;SDS011;1984;48.312;9.244;2022-09-09T06:57:24;9.57;;;1.40;;
3939;SDS011;1984;48.312;9.244;2022-09-09T06:59:49;2.20;;;1.10;;
3939;SDS011;1984;48.312;9.244;2022-09-09T07:02:15;3.03;;;1.30;;
3939;SDS011;1984;48.312;9.244;2022-09-09T07:04:41;3.07;;;1.57;;
3939;SDS011;1984;48.312;9.244;2022-09-09T07:07:06;3.37;;;1.53;;
3939;SDS011;1984;48.312;9.244;2022-09-09T07:09:34;2.60;;;1.70;;
3939;SDS011;1984;48.312;9.244;2022-09-09T07:12:00;5.40;;;1.73;;
3939;SDS011;1984;48.312;9.244;2022-09-09T07:14:26;4.60;;;1.50;;
3939;SDS011;1984;48.312;9.244;2022-09-09T07:16:52;4.10;;;1.00;;
3939;SDS011;1984;48.312;9.244;2022-09-09T07:19:17;3.17;;;1.10;;
3939;SDS011;1984;48.312;9.244;2022-09-09T07:21:43;1.90;;;1.43;;
3939;SDS011;1984;48.312;9.244;2022-09-09T07:24:09;3.93;;;1.30;;
3939;SDS011;1984;48.312;9.244;2022-09-09T07:26:36;4.63;;;1.23;;
3939;SDS011;1984;48.312;9.244;2022-09-09T07:29:02;4.00;;;1.23;;
3939;SDS011;1984;48.312;9.244;2022-09-09T07:31:29;3.23;;;1.20;;
3939;SDS011;1984;48.312;9.244;2022-09-09T07:33:56;2.40;;;1.20;;
3939;SDS011;1984;48.312;9.244;2022-09-09T07:36:28;1.90;;;1.40;;
3939;SDS011;1984;48.312;9.244;2022-09-09T07:39:03;3.53;;;1.50;;
3939;SDS011;1984;48.312;9.244;2022-09-09T07:41:34;4.77;;;2.27;;
3939;SDS011;1984;48.312;9.244;2022-09-09T07:44:05;4.77;;;1.80;;
3939;SDS011;1984;48.312;9.244;2022-09-09T07:46:36;4.33;;;1.50;;
3939;SDS011;1984;48.312;9.244;2022-09-09T07:49:02;2.00;;;1.10;;
3939;SDS011;1984;48.312;9.244;2022-09-09T07:51:29;2.57;;;1.17;;
3939;SDS011;1984;48.312;9.244;2022-09-09T07:53:58;6.53;;;1.60;;
3939;SDS011;1984;48.312;9.244;2022-09-09T07:56:26;1.70;;;0.93;;
3939;SDS011;1984;48.312;9.244;2022-09-09T07:58:54;4.93;;;1.60;;
3939;SDS011;1984;48.312;9.244;2022-09-09T08:01:24;2.40;;;0.70;;
3939;SDS011;1984;48.312;9.244;2022-09-09T08:03:55;4.93;;;1.23;;
3939;SDS011;1984;48.312;9.244;2022-09-09T08:06:24;2.43;;;1.40;;
3939;SDS011;1984;48.312;9.244;2022-09-09T08:08:51;5.40;;;0.87;;
3939;SDS011;1984;48.312;9.244;2022-09-09T08:11:18;1.20;;;1.00;;
3939;SDS011;1984;48.312;9.244;2022-09-09T08:13:43;1.83;;;1.03;;
3939;SDS011;1984;48.312;9.244;2022-09-09T08:16:11;6.30;;;1.20;;
3939;SDS011;1984;48.312;9.244;2022-09-09T08:18:41;1.63;;;0.73;;
3939;SDS011;1984;48.312;9.244;2022-09-09T08:21:11;2.37;;;1.17;;
3939;SDS011;1984;48.312;9.244;2022-09-09T08:23:42;2.10;;;1.20;;
3939;SDS011;1984;48.312;9.244;2022-09-09T08:26:11;1.20;;;1.00;;
3939;SDS011;1984;48.312;9.244;2022-09-09T08:28:39;13.07;;;1.37;;
3939;SDS011;1984;48.312;9.244;2022-09-09T08:31:16;3.97;;;1.20;;
3939;SDS011;1984;48.312;9.244;2022-09-09T08:33:49;2.60;;;1.10;;
3939;SDS011;1984;48.312;9.244;2022-09-09T08:36:19;1.93;;;1.10;;
3939;SDS011;1984;48.312;9.244;2022-09-09T08:38:50;3.63;;;1.30;;
3939;SDS011;1984;48.312;9.244;2022-09-09T08:50:13;3.10;;;0.93;;
3939;SDS011;1984;48.312;9.244;2022-09-09T08:55:22;6.87;;;1.20;;
3939;SDS011;1984;48.312;9.244;2022-09-09T08:57:52;3.70;;;1.07;;
3939;SDS011;1984;48.312;9.244;2022-09-09T09:00:20;5.40;;;0.93;;
3939;SDS011;1984;48.312;9.244;2022-09-09T09:05:37;4.70;;;1.30;;
3939;SDS011;1984;48.312;9.244;2022-09-09T09:08:32;2.10;;;1.17;;
3939;SDS011;1984;48.312;9.244;2022-09-09T09:11:21;5.60;;;1.00;;
3939;SDS011;1984;48.312;9.244;2022-09-09T09:16:22;2.97;;;1.00;;
3939;SDS011;1984;48.312;9.244;2022-09-09T09:18:54;2.30;;;1.23;;
3939;SDS011;1984;48.312;9.244;2022-09-09T09:21:34;2.80;;;1.00;;
3939;SDS011;1984;48.312;9.244;2022-09-09T09:24:23;1.73;;;0.80;;
3939;SDS011;1984;48.312;9.244;2022-09-09T09:27:00;0.80;;;0.80;;
3939;SDS011;1984;48.312;9.244;2022-09-09T09:29:37;13.67;;;1.00;;
3939;SDS011;1984;48.312;9.244;2022-09-09T09:32:04;1.63;;;0.97;;
3939;SDS011;1984;48.312;9.244;2022-09-09T09:34:33;3.87;;;1.00;;
3939;SDS011;1984;48.312;9.244;2022-09-09T09:36:59;2.30;;;1.10;;
3939;SDS011;1984;48.312;9.244;2022-09-09T09:39:33;2.90;;;1.03;;
3939;SDS011;1984;48.312;9.244;2022-09-09T09:42:09;3.63;;;1.03;;
3939;SDS011;1984;48.312;9.244;2022-09-09T09:44:40;1.70;;;0.87;;
3939;SDS011;1984;48.312;9.244;2022-09-09T09:47:14;8.60;;;1.00;;
3939;SDS011;1984;48.312;9.244;2022-09-09T09:52:25;3.53;;;0.70;;
3939;SDS011;1984;48.312;9.244;2022-09-09T09:54:53;1.70;;;0.77;;
3939;SDS011;1984;48.312;9.244;2022-09-09T09:57:24;3.93;;;1.17;;
3939;SDS011;1984;48.312;9.244;2022-09-09T10:00:14;1.10;;;0.70;;
3939;SDS011;1984;48.312;9.244;2022-09-09T10:02:42;3.50;;;0.80;;
3939;SDS011;1984;48.312;9.244;2022-09-09T10:07:40;6.00;;;0.90;;
3939;SDS011;1984;48.312;9.244;2022-09-09T10:10:12;5.27;;;0.77;;
3939;SDS011;1984;48.312;9.244;2022-09-09T10:12:54;8.57;;;0.93;;
3939;SDS011;1984;48.312;9.244;2022-09-09T10:15:32;3.87;;;0.60;;
3939;SDS011;1984;48.312;9.244;2022-09-09T10:23:21;2.83;;;0.80;;
3939;SDS011;1984;48.312;9.244;2022-09-09T10:31:52;1.00;;;0.63;;
3939;SDS011;1984;48.312;9.244;2022-09-09T10:34:55;3.13;;;0.80;;
3939;SDS011;1984;48.312;9.244;2022-09-09T10:40:16;3.23;;;0.80;;
3939;SDS011;1984;48.312;9.244;2022-09-09T10:42:51;2.13;;;0.83;;
3939;SDS011;1984;48.312;9.244;2022-09-09T10:45:36;1.20;;;1.10;;
3939;SDS011;1984;48.312;9.244;2022-09-09T10:48:45;4.87;;;0.90;;
3939;SDS011;1984;48.312;9.244;2022-09-09T10:56:58;2.10;;;1.13;;
3939;SDS011;1984;48.312;9.244;2022-09-09T10:59:47;2.90;;;1.20;;
3939;SDS011;1984;48.312;9.244;2022-09-09T11:02:24;1.80;;;0.80;;
3939;SDS011;1984;48.312;9.244;2022-09-09T11:04:53;3.80;;;1.00;;
3939;SDS011;1984;48.312;9.244;2022-09-09T11:07:41;2.00;;;0.80;;
3939;SDS011;1984;48.312;9.244;2022-09-09T11:13:02;2.10;;;0.60;;
3939;SDS011;1984;48.312;9.244;2022-09-09T11:15:39;0.90;;;0.60;;
3939;SDS011;1984;48.312;9.244;2022-09-09T11:18:11;5.57;;;1.30;;
3939;SDS011;1984;48.312;9.244;2022-09-09T11:20:44;3.33;;;0.70;;
3939;SDS011;1984;48.312;9.244;2022-09-09T11:23:17;2.30;;;0.67;;
3939;SDS011;1984;48.312;9.244;2022-09-09T11:25:52;6.40;;;1.07;;
3939;SDS011;1984;48.312;9.244;2022-09-09T11:28:28;0.67;;;0.60;;
3939;SDS011;1984;48.312;9.244;2022-09-09T11:34:23;0.77;;;0.60;;
3939;SDS011;1984;48.312;9.244;2022-09-09T11:42:33;1.23;;;0.73;;
3939;SDS011;1984;48.312;9.244;2022-09-09T11:45:08;1.80;;;0.80;;
3939;SDS011;1984;48.312;9.244;2022-09-09T11:47:52;4.10;;;0.87;;
3939;SDS011;1984;48.312;9.244;2022-09-09T11:52:50;1.13;;;0.77;;
3939;SDS011;1984;48.312;9.244;2022-09-09T11:55:26;2.20;;;0.83;;
3939;SDS011;1984;48.312;9.244;2022-09-09T11:58:01;1.20;;;0.90;;
3939;SDS011;1984;48.312;9.244;2022-09-09T12:00:31;1.17;;;0.70;;
3939;SDS011;1984;48.312;9.244;2022-09-09T12:03:30;1.60;;;0.80;;
3939;SDS011;1984;48.312;9.244;2022-09-09T12:06:08;2.00;;;1.50;;
3939;SDS011;1984;48.312;9.244;2022-09-09T12:08:58;1.20;;;0.73;;
3939;SDS011;1984;48.312;9.244;2022-09-09T12:11:33;1.07;;;0.70;;
3939;SDS011;1984;48.312;9.244;2022-09-09T12:13:59;0.87;;;0.70;;
3939;SDS011;1984;48.312;9.244;2022-09-09T12:24:36;3.77;;;0.70;;
3939;SDS011;1984;48.312;9.244;2022-09-09T12:32:25;2.33;;;0.63;;
3939;SDS011;1984;48.312;9.244;2022-09-09T12:34:52;1.80;;;0.77;;
3939;SDS011;1984;48.312;9.244;2022-09-09T12:37:32;2.20;;;0.90;;
3939;SDS011;1984;48.312;9.244;2022-09-09T12:40:17;1.83;;;0.70;;
3939;SDS011;1984;48.312;9.244;2022-09-09T12:42:48;1.80;;;0.80;;
3939;SDS011;1984;48.312;9.244;2022-09-09T12:45:22;0.73;;;0.70;;
3939;SDS011;1984;48.312;9.244;2022-09-09T12:47:54;2.60;;;1.00;;
3939;SDS011;1984;48.312;9.244;2022-09-09T12:50:24;0.70;;;0.60;;
3939;SDS011;1984;48.312;9.244;2022-09-09T12:53:02;1.27;;;0.70;;
3939;SDS011;1984;48.312;9.244;2022-09-09T12:55:35;2.63;;;1.00;;
3939;SDS011;1984;48.312;9.244;2022-09-09T12:58:03;12.53;;;1.00;;
3939;SDS011;1984;48.312;9.244;2022-09-09T13:00:31;2.87;;;0.80;;
3939;SDS011;1984;48.312;9.244;2022-09-09T13:02:59;1.20;;;0.80;;
3939;SDS011;1984;48.312;9.244;2022-09-09T13:05:36;3.03;;;0.80;;
3939;SDS011;1984;48.312;9.244;2022-09-09T13:08:04;2.50;;;0.80;;
3939;SDS011;1984;48.312;9.244;2022-09-09T13:10:32;6.83;;;1.00;;
3939;SDS011;1984;48.312;9.244;2022-09-09T13:13:03;9.40;;;0.80;;
3939;SDS011;1984;48.312;9.244;2022-09-09T13:15:30;2.10;;;0.90;;
3939;SDS011;1984;48.312;9.244;2022-09-09T13:17:57;1.53;;;0.60;;
3939;SDS011;1984;48.312;9.244;2022-09-09T13:20:25;3.60;;;0.70;;
3939;SDS011;1984;48.312;9.244;2022-09-09T13:22:52;1.57;;;0.80;;
3939;SDS011;1984;48.312;9.244;2022-09-09T13:25:26;2.70;;;0.80;;
3939;SDS011;1984;48.312;9.244;2022-09-09T13:28:00;2.87;;;1.00;;
3939;SDS011;1984;48.312;9.244;2022-09-09T13:30:35;2.10;;;0.80;;
3939;SDS011;1984;48.312;9.244;2022-09-09T13:35:46;1.90;;;0.80;;
3939;SDS011;1984;48.312;9.244;2022-09-09T13:38:19;1.43;;;0.80;;
3939;SDS011;1984;48.312;9.244;2022-09-09T13:40:54;3.07;;;1.33;;
3939;SDS011;1984;48.312;9.244;2022-09-09T13:43:27;2.73;;;0.70;;
3939;SDS011;1984;48.312;9.244;2022-09-09T13:46:01;6.03;;;1.43;;
3939;SDS011;1984;48.312;9.244;2022-09-09T13:48:28;2.60;;;0.50;;
3939;SDS011;1984;48.312;9.244;2022-09-09T13:50:57;1.27;;;0.93;;
3939;SDS011;1984;48.312;9.244;2022-09-09T13:53:25;2.63;;;0.60;;
3939;SDS011;1984;48.312;9.244;2022-09-09T13:55:50;9.73;;;0.90;;
3939;SDS011;1984;48.312;9.244;2022-09-09T13:58:17;2.53;;;0.87;;
3939;SDS011;1984;48.312;9.244;2022-09-09T14:00:47;7.23;;;1.13;;
3939;SDS011;1984;48.312;9.244;2022-09-09T14:03:13;2.30;;;0.70;;
3939;SDS011;1984;48.312;9.244;2022-09-09T14:05:39;4.00;;;0.90;;
3939;SDS011;1984;48.312;9.244;2022-09-09T14:08:05;3.33;;;0.83;;
3939;SDS011;1984;48.312;9.244;2022-09-09T14:10:32;2.40;;;0.83;;
3939;SDS011;1984;48.312;9.244;2022-09-09T14:13:02;1.77;;;0.73;;
3939;SDS011;1984;48.312;9.244;2022-09-09T14:15:27;2.80;;;0.90;;
3939;SDS011;1984;48.312;9.244;2022-09-09T14:17:53;0.60;;;0.50;;
3939;SDS011;1984;48.312;9.244;2022-09-09T14:20:19;1.70;;;0.67;;
3939;SDS011;1984;48.312;9.244;2022-09-09T14:22:45;1.37;;;0.80;;
3939;SDS011;1984;48.312;9.244;2022-09-09T14:25:11;6.30;;;0.90;;
3939;SDS011;1984;48.312;9.244;2022-09-09T14:27:38;1.83;;;0.83;;
3939;SDS011;1984;48.312;9.244;2022-09-09T14:30:04;3.77;;;1.07;;
3939;SDS011;1984;48.312;9.244;2022-09-09T14:32:31;7.70;;;0.90;;
3939;SDS011;1984;48.312;9.244;2022-09-09T14:34:57;5.27;;;0.60;;
3939;SDS011;1984;48.312;9.244;2022-09-09T14:37:23;0.87;;;0.67;;
3939;SDS011;1984;48.312;9.244;2022-09-09T14:39:49;1.60;;;0.60;;
3939;SDS011;1984;48.312;9.244;2022-09-09T14:42:15;0.90;;;0.70;;
3939;SDS011;1984;48.312;9.244;2022-09-09T14:44:41;2.00;;;0.80;;
3939;SDS011;1984;48.312;9.244;2022-09-09T14:47:07;2.83;;;1.17;;
3939;SDS011;1984;48.312;9.244;2022-09-09T14:49:33;1.90;;;0.60;;
3939;SDS011;1984;48.312;9.244;2022-09-09T14:51:59;3.57;;;0.70;;
3939;SDS011;1984;48.312;9.244;2022-09-09T14:54:25;1.23;;;0.70;;
3939;SDS011;1984;48.312;9.244;2022-09-09T14:56:51;1.30;;;0.77;;
3939;SDS011;1984;48.312;9.244;2022-09-09T14:59:17;1.20;;;0.63;;
3939;SDS011;1984;48.312;9.244;2022-09-09T15:01:42;0.80;;;0.70;;
3939;SDS011;1984;48.312;9.244;2022-09-09T15:04:10;3.13;;;0.60;;
3939;SDS011;1984;48.312;9.244;2022-09-09T15:06:37;3.53;;;1.60;;
3939;SDS011;1984;48.312;9.244;2022-09-09T15:09:04;3.17;;;1.10;;
3939;SDS011;1984;48.312;9.244;2022-09-09T15:11:30;3.30;;;0.97;;
3939;SDS011;1984;48.312;9.244;2022-09-09T15:14:02;1.13;;;0.97;;
3939;SDS011;1984;48.312;9.244;2022-09-09T15:16:28;5.63;;;2.60;;
3939;SDS011;1984;48.312;9.244;2022-09-09T15:18:58;3.73;;;0.90;;
3939;SDS011;1984;48.312;9.244;2022-09-09T15:21:29;2.63;;;1.40;;
3939;SDS011;1984;48.312;9.244;2022-09-09T15:23:56;3.30;;;0.67;;
3939;SDS011;1984;48.312;9.244;2022-09-09T15:26:22;4.00;;;1.00;;
3939;SDS011;1984;48.312;9.244;2022-09-09T15:28:48;2.43;;;0.90;;
3939;SDS011;1984;48.312;9.244;2022-09-09T15:31:19;1.30;;;0.77;;
3939;SDS011;1984;48.312;9.244;2022-09-09T15:33:47;3.27;;;1.07;;
3939;SDS011;1984;48.312;9.244;2022-09-09T15:38:42;3.07;;;0.70;;
3939;SDS011;1984;48.312;9.244;2022-09-09T15:41:08;3.43;;;1.03;;
3939;SDS011;1984;48.312;9.244;2022-09-09T15:43:34;1.30;;;0.50;;
3939;SDS011;1984;48.312;9.244;2022-09-09T15:46:02;3.00;;;0.73;;
3939;SDS011;1984;48.312;9.244;2022-09-09T15:48:49;1.10;;;0.70;;
3939;SDS011;1984;48.312;9.244;2022-09-09T15:51:15;0.80;;;0.60;;
3939;SDS011;1984;48.312;9.244;2022-09-09T15:53:41;1.57;;;1.03;;
3939;SDS011;1984;48.312;9.244;2022-09-09T15:56:07;1.80;;;0.50;;
3939;SDS011;1984;48.312;9.244;2022-09-09T15:58:33;1.33;;;0.73;;
3939;SDS011;1984;48.312;9.244;2022-09-09T16:01:01;2.30;;;0.50;;
3939;SDS011;1984;48.312;9.244;2022-09-09T16:03:35;1.20;;;0.60;;
3939;SDS011;1984;48.312;9.244;2022-09-09T16:06:02;0.70;;;0.60;;
3939;SDS011;1984;48.312;9.244;2022-09-09T16:08:33;1.47;;;0.60;;
3939;SDS011;1984;48.312;9.244;2022-09-09T16:11:04;0.70;;;0.60;;
3939;SDS011;1984;48.312;9.244;2022-09-09T16:13:32;1.70;;;0.70;;
3939;SDS011;1984;48.312;9.244;2022-09-09T16:15:58;1.03;;;0.70;;
3939;SDS011;1984;48.312;9.244;2022-09-09T16:18:24;2.60;;;0.70;;
3939;SDS011;1984;48.312;9.244;2022-09-09T16:20:53;2.07;;;0.80;;
3939;SDS011;1984;48.312;9.244;2022-09-09T16:23:20;3.87;;;0.70;;
3939;SDS011;1984;48.312;9.244;2022-09-09T16:25:53;5.70;;;0.60;;
3939;SDS011;1984;48.312;9.244;2022-09-09T16:28:19;6.13;;;0.70;;
3939;SDS011;1984;48.312;9.244;2022-09-09T16:30:45;1.73;;;0.60;;
3939;SDS011;1984;48.312;9.244;2022-09-09T16:33:10;1.00;;;0.50;;
3939;SDS011;1984;48.312;9.244;2022-09-09T16:35:36;0.90;;;0.70;;
3939;SDS011;1984;48.312;9.244;2022-09-09T16:38:03;3.43;;;0.80;;
3939;SDS011;1984;48.312;9.244;2022-09-09T16:40:29;1.00;;;0.60;;
3939;SDS011;1984;48.312;9.244;2022-09-09T16:42:55;2.17;;;0.70;;
3939;SDS011;1984;48.312;9.244;2022-09-09T16:45:21;2.30;;;0.70;;
3939;SDS011;1984;48.312;9.244;2022-09-09T16:47:47;1.73;;;0.70;;
3939;SDS011;1984;48.312;9.244;2022-09-09T16:50:13;1.10;;;0.50;;
3939;SDS011;1984;48.312;9.244;2022-09-09T16:52:39;1.27;;;0.80;;
3939;SDS011;1984;48.312;9.244;2022-09-09T16:55:04;19.37;;;0.87;;
3939;SDS011;1984;48.312;9.244;2022-09-09T16:57:30;1.73;;;1.00;;
3939;SDS011;1984;48.312;9.244;2022-09-09T16:59:56;0.90;;;0.50;;
3939;SDS011;1984;48.312;9.244;2022-09-09T17:02:24;0.90;;;0.53;;
3939;SDS011;1984;48.312;9.244;2022-09-09T17:04:50;1.00;;;0.70;;
3939;SDS011;1984;48.312;9.244;2022-09-09T17:07:15;4.37;;;0.73;;
3939;SDS011;1984;48.312;9.244;2022-09-09T17:09:41;2.70;;;0.60;;
3939;SDS011;1984;48.312;9.244;2022-09-09T17:12:07;4.40;;;0.90;;
3939;SDS011;1984;48.312;9.244;2022-09-09T17:14:33;2.50;;;0.90;;
3939;SDS011;1984;48.312;9.244;2022-09-09T17:16:59;2.50;;;0.80;;
3939;SDS011;1984;48.312;9.244;2022-09-09T17:19:25;2.87;;;1.00;;
3939;SDS011;1984;48.312;9.244;2022-09-09T17:21:51;1.63;;;0.70;;
3939;SDS011;1984;48.312;9.244;2022-09-09T17:24:17;12.93;;;0.80;;
3939;SDS011;1984;48.312;9.244;2022-09-09T17:26:42;1.27;;;0.70;;